Погода Песчанокопскоена 2 недели

Ростовская область, Россия

23 мая-04 июня
  • 23мая
    Сегодня
    +14°
    +26°
    Ясно и безоблачно
    ВремяПогодаТемператураВлажностьДавлениеВетер, м/сВероятность осадков
    00:00Ясно и безоблачно+16°C47 %754 мм3.6 м/с2 %
    03:00Ясно и безоблачно+13°C52 %754 мм3.2 м/с2 %
    06:00Ясно и безоблачно+13°C62 %754 мм3.6 м/с2 %
    09:00Ясно и безоблачно+20°C50 %755 мм4.1 м/с2 %
    12:00Ясно и безоблачно+24°C30 %754 мм5.9 м/с2 %
    15:00Ясно и безоблачно+25°C25 %753 мм6.0 м/с2 %
    18:00Ясно и безоблачно+24°C31 %753 мм4.7 м/с2 %
    21:00Ясно и безоблачно+20°C38 %753 мм4.5 м/с2 %
  • 24мая
    Пятница
    +12°
    +25°
    Ясно и безоблачно
    ВремяПогодаТемператураВлажностьДавлениеВетер, м/сВероятность осадков
    00:00Ясно и безоблачно+17°C46 %753 мм3.9 м/с2 %
    03:00Ясно и безоблачно+15°C49 %754 мм4.7 м/с2 %
    06:00Ясно и безоблачно+16°C60 %755 мм5.9 м/с2 %
    09:00Ясно и безоблачно+20°C62 %756 мм8.0 м/с2 %
    12:00Ясно и безоблачно+24°C41 %756 мм8.7 м/с3 %
    15:00Ясно и безоблачно+24°C35 %756 мм9.0 м/с8 %
    18:00Ясно и безоблачно+23°C34 %756 мм8.1 м/с3 %
    21:00Ясно и безоблачно+18°C24 %757 мм8.4 м/с2 %
  • 25мая
    Суббота
    +11°
    +23°
    Практически безоблачно
    ВремяПогодаТемператураВлажностьДавлениеВетер, м/сВероятность осадков
    00:00Ясно и безоблачно+16°C24 %758 мм8.6 м/с2 %
    03:00Ясно и безоблачно+14°C28 %759 мм8.2 м/с2 %
    06:00Ясно и безоблачно+13°C36 %759 мм7.9 м/с2 %
    09:00Ясно и безоблачно+17°C37 %760 мм8.7 м/с2 %
    12:00Ясно и безоблачно+21°C33 %759 мм9.4 м/с2 %
    15:00Практически безоблачно+23°C29 %758 мм9.7 м/с2 %
    18:00Облачно с прояснениями+20°C29 %758 мм8.1 м/с2 %
    21:00Пасмурно, сплошная облачность+18°C33 %758 мм7.0 м/с2 %
  • 26мая
    Воскресенье
    +11°
    +24°
    Облачно с прояснениями
    ВремяПогодаТемператураВлажностьДавлениеВетер, м/сВероятность осадков
    00:00Облачно с прояснениями+15°C36 %758 мм7.4 м/с2 %
    03:00Небольшая облачность+12°C46 %757 мм6.5 м/с5 %
    06:00Практически безоблачно+13°C64 %757 мм6.2 м/с6 %
    09:00Ясно и безоблачно+17°C51 %757 мм8.5 м/с5 %
    12:00Практически безоблачно+21°C36 %756 мм8.7 м/с7 %
    15:00Облачно с прояснениями+22°C30 %755 мм8.1 м/с2 %
    18:00Облачно с прояснениями+22°C31 %755 мм5.5 м/с2 %
    21:00Облачно с прояснениями+19°C32 %756 мм5.6 м/с5 %
Мы используем cookies
Соглашаюсь